createdAt,value
2023-04-02T00:00:20.301Z,10.80
2023-04-02T00:02:56.227Z,10.80
2023-04-02T00:05:34.433Z,10.80
2023-04-02T00:08:04.548Z,10.80
2023-04-02T00:10:36.834Z,10.70
2023-04-02T00:13:07.705Z,10.60
2023-04-02T00:15:36.287Z,10.60
2023-04-02T00:18:05.637Z,10.50
2023-04-02T00:20:38.599Z,10.40
2023-04-02T00:23:07.675Z,10.40
2023-04-02T00:25:42.935Z,10.40
2023-04-02T00:28:14.740Z,10.40
2023-04-02T00:30:49.213Z,10.30
2023-04-02T00:33:19.144Z,10.30
2023-04-02T00:35:48.485Z,10.40
2023-04-02T00:38:22.281Z,10.40
2023-04-02T00:40:53.694Z,10.40
2023-04-02T00:43:22.780Z,10.40
2023-04-02T00:45:56.082Z,10.40
2023-04-02T00:48:40.912Z,10.40
2023-04-02T00:51:18.738Z,10.40
2023-04-02T00:53:48.485Z,10.30
2023-04-02T00:56:25.766Z,10.30
2023-04-02T00:58:55.990Z,10.40
2023-04-02T01:01:26.259Z,10.40
2023-04-02T01:03:58.184Z,10.40
2023-04-02T01:06:31.125Z,10.50
2023-04-02T01:09:21.201Z,10.40
2023-04-02T01:12:25.912Z,10.40
2023-04-02T01:15:00.979Z,10.40
2023-04-02T01:17:39.776Z,10.40
2023-04-02T01:20:51.109Z,10.40
2023-04-02T01:23:25.244Z,10.30
2023-04-02T01:25:59.143Z,10.30
2023-04-02T01:28:35.311Z,10.30
2023-04-02T01:31:05.655Z,10.30
2023-04-02T01:33:36.543Z,10.30
2023-04-02T01:36:10.688Z,10.30
2023-04-02T01:38:45.434Z,10.40
2023-04-02T01:41:22.015Z,10.40
2023-04-02T01:43:56.714Z,10.40
2023-04-02T01:46:31.819Z,10.40
2023-04-02T01:49:03.706Z,10.40
2023-04-02T01:51:33.564Z,10.40
2023-04-02T01:54:03.756Z,10.30
2023-04-02T01:56:32.273Z,10.30
2023-04-02T01:59:01.318Z,10.30
2023-04-02T02:01:37.093Z,10.40
2023-04-02T02:04:05.160Z,10.50
2023-04-02T02:06:33.132Z,10.50
2023-04-02T02:09:04.507Z,10.50
2023-04-02T02:11:33.926Z,10.50
2023-04-02T02:14:03.967Z,10.40
2023-04-02T02:16:41.570Z,10.40
2023-04-02T02:19:21.201Z,10.40
2023-04-02T02:21:52.507Z,10.30
2023-04-02T02:24:24.287Z,10.20
2023-04-02T02:27:01.584Z,10.10
2023-04-02T02:29:32.486Z,10.10
2023-04-02T02:32:02.860Z,10.10
2023-04-02T02:34:41.579Z,10.10
2023-04-02T02:37:15.960Z,10.10
2023-04-02T02:39:45.763Z,10.10
2023-04-02T02:42:19.745Z,10.10
2023-04-02T02:44:50.022Z,10.00
2023-04-02T02:47:23.618Z,10.00
2023-04-02T02:49:54.530Z,10.10
2023-04-02T02:52:26.394Z,10.00
2023-04-02T02:54:57.593Z,10.00
2023-04-02T02:57:28.728Z,10.00
2023-04-02T02:59:58.564Z,10.00
2023-04-02T03:02:29.987Z,10.00
2023-04-02T03:04:58.354Z,10.00
2023-04-02T03:07:30.229Z,10.00
2023-04-02T03:10:05.523Z,10.00
2023-04-02T03:12:43.466Z,9.90
2023-04-02T03:15:20.044Z,9.90
2023-04-02T03:17:56.773Z,9.90
2023-04-02T03:20:31.293Z,9.90
2023-04-02T03:23:04.809Z,9.90
2023-04-02T03:25:40.729Z,9.90
2023-04-02T03:28:15.647Z,9.90
2023-04-02T03:30:48.857Z,9.90
2023-04-02T03:33:22.592Z,9.80
2023-04-02T03:35:58.519Z,9.90
2023-04-02T03:38:31.269Z,9.90
2023-04-02T03:41:05.326Z,9.90
2023-04-02T03:43:37.722Z,9.80
2023-04-02T03:46:19.917Z,9.80
2023-04-02T03:48:52.736Z,9.80
2023-04-02T03:51:24.814Z,9.80
2023-04-02T03:53:52.793Z,9.80
2023-04-02T03:56:28.395Z,9.80
2023-04-02T03:59:07.366Z,9.80
2023-04-02T04:01:40.674Z,9.80
2023-04-02T04:04:14.781Z,9.70
2023-04-02T04:06:44.179Z,9.70
2023-04-02T04:09:17.236Z,9.70
2023-04-02T04:11:49.081Z,9.70
2023-04-02T04:14:20.179Z,9.70
2023-04-02T04:16:53.653Z,9.70
2023-04-02T04:19:32.507Z,9.70
2023-04-02T04:22:11.579Z,9.70
2023-04-02T04:24:39.840Z,9.70
2023-04-02T04:27:14.092Z,9.70
2023-04-02T04:29:48.010Z,9.70
2023-04-02T04:32:27.286Z,9.70
2023-04-02T04:35:02.890Z,9.70
2023-04-02T04:37:36.540Z,9.60
2023-04-02T04:40:11.967Z,9.60
2023-04-02T04:42:43.847Z,9.60
2023-04-02T04:45:26.586Z,9.60
2023-04-02T04:47:58.885Z,9.60
2023-04-02T04:50:32.190Z,9.60
2023-04-02T04:53:06.702Z,9.70
2023-04-02T04:55:38.977Z,9.60
2023-04-02T04:58:18.053Z,9.60
2023-04-02T05:00:57.290Z,9.70
2023-04-02T05:03:33.531Z,9.70
2023-04-02T05:06:09.281Z,9.70
2023-04-02T05:08:42.883Z,9.70
2023-04-02T05:11:15.854Z,9.70
2023-04-02T05:13:50.308Z,9.70
2023-04-02T05:16:24.730Z,9.70
2023-04-02T05:19:00.509Z,9.70
2023-04-02T05:21:36.083Z,9.60
2023-04-02T05:24:29.472Z,9.60
2023-04-02T05:27:01.288Z,9.60
2023-04-02T05:29:33.249Z,9.60
2023-04-02T05:32:05.126Z,9.60
2023-04-02T05:34:37.408Z,9.70
2023-04-02T05:37:09.147Z,9.70
2023-04-02T05:39:37.064Z,9.70
2023-04-02T05:42:08.206Z,9.70
2023-04-02T05:44:41.798Z,9.80
2023-04-02T05:47:15.925Z,9.80
2023-04-02T05:49:49.579Z,9.80
2023-04-02T05:52:23.133Z,9.80
2023-04-02T05:54:56.418Z,9.70
2023-04-02T05:57:42.697Z,9.70
2023-04-02T06:00:18.556Z,9.60
2023-04-02T06:02:54.770Z,9.60
2023-04-02T06:05:27.056Z,9.50
2023-04-02T06:08:03.618Z,9.50
2023-04-02T06:10:34.886Z,9.60
2023-04-02T06:13:07.472Z,9.60
2023-04-02T06:15:38.905Z,9.70
2023-04-02T06:18:10.011Z,9.70
2023-04-02T06:20:37.950Z,9.80
2023-04-02T06:23:14.831Z,9.80
2023-04-02T06:25:47.250Z,9.90
2023-04-02T06:28:19.058Z,10.00
2023-04-02T06:30:48.221Z,10.10
2023-04-02T06:33:16.603Z,10.00
2023-04-02T06:35:46.699Z,10.00
2023-04-02T06:38:20.586Z,10.10
2023-04-02T06:40:51.359Z,10.10
2023-04-02T06:43:26.284Z,10.10
2023-04-02T06:45:58.359Z,10.20
2023-04-02T06:48:28.583Z,10.20
2023-04-02T06:51:00.632Z,10.20
2023-04-02T06:53:35.230Z,10.30
2023-04-02T06:56:07.068Z,10.30
2023-04-02T06:58:35.069Z,10.30
2023-04-02T07:01:03.243Z,10.30
2023-04-02T07:03:33.376Z,10.40
2023-04-02T07:06:07.767Z,10.50
2023-04-02T07:08:36.968Z,10.50
2023-04-02T07:11:05.054Z,10.50
2023-04-02T07:13:32.987Z,10.40
2023-04-02T07:16:01.239Z,10.40
2023-04-02T07:18:31.673Z,10.40
2023-04-02T07:21:00.092Z,10.40
2023-04-02T07:23:28.037Z,10.40
2023-04-02T07:25:58.445Z,10.30
2023-04-02T07:28:26.855Z,10.30
2023-04-02T07:30:55.344Z,10.40
2023-04-02T07:33:25.945Z,10.40
2023-04-02T07:35:55.523Z,10.40
2023-04-02T07:38:23.438Z,10.50
2023-04-02T07:40:51.677Z,10.60
2023-04-02T07:43:21.771Z,10.50
2023-04-02T07:45:51.095Z,10.50
2023-04-02T07:48:18.929Z,10.60
2023-04-02T07:50:46.895Z,10.60
2023-04-02T07:53:29.945Z,10.60
2023-04-02T07:55:58.378Z,10.60
2023-04-02T07:58:27.589Z,10.60
2023-04-02T08:00:55.567Z,10.70
2023-04-02T08:03:24.046Z,10.70
2023-04-02T08:05:53.509Z,10.70
2023-04-02T08:08:21.947Z,10.70
2023-04-02T08:10:50.281Z,10.70
2023-04-02T08:13:19.521Z,10.70
2023-04-02T08:15:48.783Z,10.70
2023-04-02T08:18:16.662Z,10.80
2023-04-02T08:20:44.539Z,10.80
2023-04-02T08:23:17.775Z,11.00
2023-04-02T08:25:46.147Z,11.00
2023-04-02T08:28:14.701Z,11.10
2023-04-02T08:30:42.589Z,11.20
2023-04-02T08:33:12.532Z,11.20
2023-04-02T08:35:40.696Z,11.20
2023-04-02T08:38:09.713Z,11.20
2023-04-02T08:40:40.147Z,11.10
2023-04-02T08:43:31.946Z,11.10
2023-04-02T08:46:10.465Z,11.20
2023-04-02T08:48:44.375Z,11.30
2023-04-02T08:51:24.282Z,11.40
2023-04-02T08:53:54.940Z,11.50
2023-04-02T08:56:31.649Z,11.60
2023-04-02T08:59:02.888Z,11.80
2023-04-02T09:01:37.816Z,11.80
2023-04-02T09:04:16.011Z,12.00
2023-04-02T09:06:47.416Z,12.10
2023-04-02T09:09:17.547Z,12.00
2023-04-02T09:11:53.357Z,12.20
2023-04-02T09:14:25.653Z,12.20
2023-04-02T09:16:56.108Z,12.30
2023-04-02T09:19:32.042Z,12.50
2023-04-02T09:22:09.023Z,12.50
2023-04-02T09:24:38.158Z,12.70
2023-04-02T09:27:18.979Z,12.80
2023-04-02T09:29:48.495Z,12.70
2023-04-02T09:32:38.129Z,12.90
2023-04-02T09:35:24.643Z,12.90
2023-04-02T09:38:18.069Z,13.00
2023-04-02T09:40:49.870Z,13.00
2023-04-02T09:43:22.179Z,13.00
2023-04-02T09:45:59.385Z,13.00
2023-04-02T09:48:31.144Z,13.00
2023-04-02T09:51:12.436Z,12.50
2023-04-02T09:53:42.788Z,12.00
2023-04-02T09:56:20.436Z,11.60
2023-04-02T09:59:04.250Z,11.40
2023-04-02T10:01:35.307Z,11.00
2023-04-02T10:04:05.032Z,10.70
2023-04-02T10:06:35.613Z,10.50
2023-04-02T10:09:20.999Z,10.40
2023-04-02T10:11:49.343Z,10.30
2023-04-02T10:14:21.108Z,10.10
2023-04-02T10:16:53.246Z,10.10
2023-04-02T10:19:30.653Z,10.00
2023-04-02T10:22:04.228Z,9.90
2023-04-02T10:24:32.173Z,9.80
2023-04-02T10:27:18.052Z,9.60
2023-04-02T10:30:16.829Z,9.50
2023-04-02T10:32:51.044Z,9.50
2023-04-02T10:35:29.016Z,9.40
2023-04-02T10:38:16.406Z,9.30
2023-04-02T10:40:49.616Z,9.30
2023-04-02T10:43:54.245Z,9.30
2023-04-02T10:46:27.303Z,9.20
2023-04-02T10:49:04.487Z,9.30
2023-04-02T10:51:40.401Z,9.30
2023-04-02T10:54:27.823Z,9.20
2023-04-02T10:57:05.455Z,9.30
2023-04-02T10:59:35.855Z,9.30
2023-04-02T11:02:14.740Z,9.20
2023-04-02T11:04:46.514Z,9.20
2023-04-02T11:07:19.305Z,9.20
2023-04-02T11:09:52.980Z,9.10
2023-04-02T11:12:26.247Z,9.10
2023-04-02T11:14:56.182Z,9.10
2023-04-02T11:17:25.251Z,9.10
2023-04-02T11:19:54.249Z,9.10
2023-04-02T11:22:23.888Z,9.10
2023-04-02T11:24:54.567Z,9.00
2023-04-02T11:27:27.370Z,9.00
2023-04-02T11:30:04.341Z,9.00
2023-04-02T11:32:37.269Z,9.00
2023-04-02T11:35:33.610Z,8.90
2023-04-02T11:38:04.263Z,8.90
2023-04-02T11:40:50.871Z,8.90
2023-04-02T11:43:53.092Z,9.00
2023-04-02T11:46:45.533Z,9.00
2023-04-02T11:49:41.911Z,9.10
2023-04-02T11:52:26.682Z,9.10
2023-04-02T11:55:03.754Z,9.00
2023-04-02T11:57:44.374Z,9.00
2023-04-02T12:00:38.865Z,9.10
2023-04-02T12:03:29.763Z,9.20
2023-04-02T12:06:04.349Z,9.30
2023-04-02T12:08:57.109Z,9.20
2023-04-02T12:11:35.038Z,9.30
2023-04-02T12:14:28.573Z,9.30
2023-04-02T12:16:56.801Z,9.30
2023-04-02T12:19:26.537Z,9.30
2023-04-02T12:21:54.983Z,9.30
2023-04-02T12:24:25.555Z,9.20
2023-04-02T12:27:15.262Z,9.20
2023-04-02T12:29:44.953Z,9.30
2023-04-02T12:32:22.926Z,9.30
2023-04-02T12:34:52.243Z,9.30
2023-04-02T12:37:24.222Z,9.30
2023-04-02T12:39:57.434Z,9.30
2023-04-02T12:42:30.245Z,9.40
2023-04-02T12:45:00.285Z,9.40
2023-04-02T12:47:29.139Z,9.40
2023-04-02T12:49:58.903Z,9.30
2023-04-02T12:52:29.468Z,9.20
2023-04-02T12:54:59.588Z,9.20
2023-04-02T12:57:40.927Z,9.20
2023-04-02T13:00:33.454Z,9.20
2023-04-02T13:03:16.301Z,9.20
2023-04-02T13:05:47.900Z,9.20
2023-04-02T13:08:19.814Z,9.20
2023-04-02T13:10:54.012Z,9.20
2023-04-02T13:13:28.924Z,9.20
2023-04-02T13:16:08.158Z,9.20
2023-04-02T13:18:38.692Z,9.20
2023-04-02T13:21:07.250Z,9.20
2023-04-02T13:23:37.670Z,9.20
2023-04-02T13:26:17.290Z,9.20
2023-04-02T13:28:55.851Z,9.10
2023-04-02T13:31:25.455Z,9.10
2023-04-02T13:33:53.355Z,9.10
2023-04-02T13:36:21.330Z,9.00
2023-04-02T13:38:49.176Z,9.10
2023-04-02T13:41:22.955Z,9.00
2023-04-02T13:43:51.229Z,9.10
2023-04-02T13:46:26.398Z,9.10
2023-04-02T13:48:56.919Z,9.10
2023-04-02T13:51:31.758Z,9.00
2023-04-02T13:53:59.593Z,8.90
2023-04-02T13:56:27.848Z,8.80
2023-04-02T13:58:55.912Z,8.70
2023-04-02T14:01:25.242Z,8.70
2023-04-02T14:03:56.296Z,8.60
2023-04-02T14:06:36.652Z,8.60
2023-04-02T14:09:08.388Z,8.60
2023-04-02T14:11:47.338Z,8.60
2023-04-02T14:14:41.756Z,8.60
2023-04-02T14:17:21.765Z,8.60
2023-04-02T14:20:08.598Z,8.60
2023-04-02T14:22:50.394Z,8.50
2023-04-02T14:25:26.516Z,8.50
2023-04-02T14:28:01.301Z,8.40
2023-04-02T14:30:42.044Z,8.40
2023-04-02T14:33:21.417Z,8.40
2023-04-02T14:35:55.785Z,8.40
2023-04-02T14:38:30.327Z,8.40
2023-04-02T14:41:05.285Z,8.40
2023-04-02T14:43:41.969Z,8.40
2023-04-02T14:46:11.457Z,8.40
2023-04-02T14:48:46.214Z,8.30
2023-04-02T14:51:22.173Z,8.20
2023-04-02T14:54:02.818Z,8.20
2023-04-02T14:56:36.837Z,8.20
2023-04-02T14:59:21.725Z,8.20
2023-04-02T15:01:51.713Z,8.20
2023-04-02T15:04:24.255Z,8.20
2023-04-02T15:06:57.928Z,8.20
2023-04-02T15:09:31.348Z,8.10
2023-04-02T15:12:04.691Z,8.10
2023-04-02T15:14:36.062Z,8.10
2023-04-02T15:17:04.034Z,8.10
2023-04-02T15:19:31.882Z,8.10
2023-04-02T15:22:10.837Z,8.00
2023-04-02T15:24:45.177Z,8.00
2023-04-02T15:27:28.059Z,7.90
2023-04-02T15:30:03.201Z,7.90
2023-04-02T15:32:38.487Z,7.80
2023-04-02T15:35:18.868Z,7.80
2023-04-02T15:37:56.953Z,7.80
2023-04-02T15:40:41.042Z,7.80
2023-04-02T15:43:18.586Z,7.80
2023-04-02T15:45:54.777Z,7.80
2023-04-02T15:48:42.810Z,7.80
2023-04-02T15:51:26.420Z,7.80
2023-04-02T15:54:04.385Z,7.70
2023-04-02T15:56:42.311Z,7.70
2023-04-02T15:59:34.929Z,7.60
2023-04-02T16:02:22.082Z,7.60
2023-04-02T16:04:58.339Z,7.60
2023-04-02T16:07:41.521Z,7.60
2023-04-02T16:10:18.019Z,7.50
2023-04-02T16:12:51.012Z,7.50
2023-04-02T16:15:25.297Z,7.50
2023-04-02T16:17:58.160Z,7.50
2023-04-02T16:20:29.681Z,7.50
2023-04-02T16:23:01.670Z,7.50
2023-04-02T16:25:36.960Z,7.50
2023-04-02T16:28:14.842Z,7.40
2023-04-02T16:30:56.667Z,7.40
2023-04-02T16:33:43.635Z,7.40
2023-04-02T16:36:24.278Z,7.40
2023-04-02T16:38:59.632Z,7.30
2023-04-02T16:41:43.558Z,7.30
2023-04-02T16:44:23.804Z,7.20
2023-04-02T16:47:02.575Z,7.20
2023-04-02T16:49:37.346Z,7.10
2023-04-02T16:52:23.532Z,7.10
2023-04-02T16:55:04.137Z,7.10
2023-04-02T16:57:41.119Z,7.10
2023-04-02T17:00:22.371Z,7.00
2023-04-02T17:03:03.316Z,7.00
2023-04-02T17:05:32.870Z,7.00
2023-04-02T17:08:12.045Z,6.90
2023-04-02T17:10:50.813Z,6.90
2023-04-02T17:13:27.902Z,6.80
2023-04-02T17:16:07.410Z,6.80
2023-04-02T17:18:35.740Z,6.80
2023-04-02T17:21:08.545Z,6.80
2023-04-02T17:23:56.045Z,6.70
2023-04-02T17:26:28.671Z,6.70
2023-04-02T17:28:59.374Z,6.70
2023-04-02T17:31:33.822Z,6.70
2023-04-02T17:34:03.214Z,6.70
2023-04-02T17:36:41.408Z,6.70
2023-04-02T17:39:17.375Z,6.70
2023-04-02T17:41:54.094Z,6.70
2023-04-02T17:44:38.725Z,6.60
2023-04-02T17:47:14.939Z,6.60
2023-04-02T17:49:49.920Z,6.60
2023-04-02T17:52:23.319Z,6.60
2023-04-02T17:55:03.791Z,6.60
2023-04-02T17:57:47.323Z,6.60
2023-04-02T18:00:30.923Z,6.50
2023-04-02T18:03:24.933Z,6.50
2023-04-02T18:05:58.608Z,6.50
2023-04-02T18:08:34.430Z,6.50
2023-04-02T18:11:11.058Z,6.50
2023-04-02T18:13:43.398Z,6.50
2023-04-02T18:16:23.809Z,6.40
2023-04-02T18:19:05.952Z,6.40
2023-04-02T18:21:40.511Z,6.40
2023-04-02T18:24:23.908Z,6.40
2023-04-02T18:27:01.047Z,6.40
2023-04-02T18:29:39.906Z,6.30
2023-04-02T18:32:24.515Z,6.30
2023-04-02T18:35:01.641Z,6.30
2023-04-02T18:37:39.880Z,6.30
2023-04-02T18:40:25.544Z,6.30
2023-04-02T18:43:01.385Z,6.30
2023-04-02T18:45:39.356Z,6.30
2023-04-02T18:48:21.520Z,6.30
2023-04-02T18:50:50.086Z,6.30
2023-04-02T18:53:20.359Z,6.30
2023-04-02T18:55:52.618Z,6.30
2023-04-02T18:58:27.200Z,6.30
2023-04-02T19:00:56.901Z,6.30
2023-04-02T19:03:32.362Z,6.30
2023-04-02T19:06:03.796Z,6.30
2023-04-02T19:08:37.168Z,6.30
2023-04-02T19:11:10.202Z,6.20
2023-04-02T19:13:38.092Z,6.20
2023-04-02T19:16:49.790Z,6.20
2023-04-02T19:19:22.581Z,6.30
2023-04-02T19:22:12.957Z,6.30
2023-04-02T19:25:01.685Z,6.20
2023-04-02T19:27:35.014Z,6.20
2023-04-02T19:30:30.262Z,6.20
2023-04-02T19:33:05.984Z,6.20
2023-04-02T19:35:39.869Z,6.20
2023-04-02T19:38:20.945Z,6.20
2023-04-02T19:40:54.069Z,6.20
2023-04-02T19:43:21.973Z,6.20
2023-04-02T19:45:50.283Z,6.20
2023-04-02T19:48:20.989Z,6.20
2023-04-02T19:50:50.856Z,6.10
2023-04-02T19:53:19.264Z,6.10
2023-04-02T19:55:47.355Z,6.10
2023-04-02T19:58:23.908Z,6.10
2023-04-02T20:00:51.812Z,6.10
2023-04-02T20:03:19.873Z,6.10
2023-04-02T20:05:48.189Z,6.10
2023-04-02T20:08:17.489Z,6.10
2023-04-02T20:10:46.088Z,6.10
2023-04-02T20:13:13.952Z,6.10
2023-04-02T20:15:42.001Z,6.10
2023-04-02T20:18:10.867Z,6.00
2023-04-02T20:20:39.406Z,6.10
2023-04-02T20:23:07.465Z,6.00
2023-04-02T20:25:36.636Z,6.00
2023-04-02T20:28:04.989Z,6.00
2023-04-02T20:30:33.337Z,6.00
2023-04-02T20:33:01.453Z,6.00
2023-04-02T20:35:30.837Z,6.00
2023-04-02T20:37:58.691Z,6.00
2023-04-02T20:40:26.593Z,6.00
2023-04-02T20:42:55.824Z,6.00
2023-04-02T20:45:24.387Z,6.00
2023-04-02T20:47:52.429Z,6.00
2023-04-02T20:50:20.555Z,6.00
2023-04-02T20:52:48.449Z,6.00
2023-04-02T20:55:16.653Z,6.00
2023-04-02T20:57:44.670Z,5.90
2023-04-02T21:00:15.744Z,5.90
2023-04-02T21:02:43.617Z,5.90
2023-04-02T21:05:11.491Z,5.90
2023-04-02T21:07:39.392Z,5.90
2023-04-02T21:10:08.408Z,5.90
2023-04-02T21:12:36.349Z,5.90
2023-04-02T21:15:04.403Z,5.90
2023-04-02T21:17:33.783Z,5.90
2023-04-02T21:20:02.133Z,5.90
2023-04-02T21:22:30.143Z,5.90
2023-04-02T21:24:58.368Z,5.90
2023-04-02T21:27:26.832Z,5.90
2023-04-02T21:29:54.789Z,5.80
2023-04-02T21:32:22.844Z,5.80
2023-04-02T21:34:52.118Z,5.80
2023-04-02T21:37:19.993Z,5.80
2023-04-02T21:39:47.953Z,5.80
2023-04-02T21:42:16.804Z,5.80
2023-04-02T21:44:44.944Z,5.80
2023-04-02T21:47:12.901Z,5.70
2023-04-02T21:49:40.844Z,5.80
2023-04-02T21:52:10.115Z,5.80
2023-04-02T21:54:37.909Z,5.70
2023-04-02T21:57:05.831Z,5.80
2023-04-02T21:59:33.989Z,5.70
2023-04-02T22:02:02.007Z,5.70
2023-04-02T22:04:30.682Z,5.70
2023-04-02T22:06:58.573Z,5.70
2023-04-02T22:09:29.705Z,5.70
2023-04-02T22:11:59.987Z,5.70
2023-04-02T22:14:28.311Z,5.70
2023-04-02T22:16:58.656Z,5.70
2023-04-02T22:19:27.109Z,5.70
2023-04-02T22:21:56.238Z,5.70
2023-04-02T22:24:24.994Z,5.60
2023-04-02T22:26:54.478Z,5.60
2023-04-02T22:29:22.446Z,5.60
2023-04-02T22:31:50.607Z,5.60
2023-04-02T22:34:18.491Z,5.60
2023-04-02T22:36:46.325Z,5.60
2023-04-02T22:39:15.069Z,5.60
2023-04-02T22:41:43.343Z,5.60
2023-04-02T22:44:15.197Z,5.60
2023-04-02T22:46:43.207Z,5.60
2023-04-02T22:49:12.392Z,5.60
2023-04-02T22:51:40.294Z,5.60
2023-04-02T22:54:08.192Z,5.60
2023-04-02T22:56:37.798Z,5.60
2023-04-02T22:59:05.746Z,5.60
2023-04-02T23:01:36.752Z,5.60
2023-04-02T23:04:05.338Z,5.70
2023-04-02T23:06:33.691Z,5.60
2023-04-02T23:09:01.515Z,5.70
2023-04-02T23:11:29.403Z,5.60
2023-04-02T23:13:58.654Z,5.60
2023-04-02T23:16:28.015Z,5.60
2023-04-02T23:18:58.028Z,5.50
2023-04-02T23:21:26.770Z,5.50
2023-04-02T23:23:55.345Z,5.40
2023-04-02T23:26:26.035Z,5.30
2023-04-02T23:28:53.925Z,5.20
2023-04-02T23:31:23.557Z,5.10
2023-04-02T23:33:52.237Z,5.00
2023-04-02T23:36:23.331Z,4.90
2023-04-02T23:38:54.956Z,4.90
2023-04-02T23:41:24.572Z,4.80
2023-04-02T23:43:52.819Z,4.70
2023-04-02T23:46:20.981Z,4.60
2023-04-02T23:48:50.648Z,4.50
2023-04-02T23:51:18.580Z,4.40
2023-04-02T23:53:48.198Z,4.40
2023-04-02T23:56:16.059Z,4.30
2023-04-02T23:58:44.224Z,4.30
